createdAt,value
2023-01-11T00:10:43.952Z,3.64
2023-01-11T00:25:47.897Z,3.22
2023-01-11T00:40:51.882Z,6.16
2023-01-11T00:55:55.638Z,9.12
2023-01-11T01:10:59.916Z,9.63
2023-01-11T01:26:04.340Z,6.00
2023-01-11T01:41:08.611Z,3.74
2023-01-11T01:56:14.911Z,2.81
2023-01-11T02:11:30.908Z,2.34
2023-01-11T02:26:34.930Z,2.13
2023-01-11T02:42:06.471Z,5.23
2023-01-11T02:57:10.523Z,8.63
2023-01-11T03:12:32.838Z,9.12
2023-01-11T03:27:46.338Z,5.21
2023-01-11T03:43:09.813Z,3.08
2023-01-11T03:58:13.922Z,2.18
2023-01-11T04:13:18.025Z,1.89
2023-01-11T04:28:21.921Z,1.84
2023-01-11T04:43:25.907Z,5.08
2023-01-11T04:58:29.983Z,8.69
2023-01-11T05:13:43.012Z,9.13
2023-01-11T05:28:47.297Z,5.10
2023-01-11T05:44:10.705Z,2.97
2023-01-11T05:59:14.735Z,2.09
2023-01-11T06:14:19.218Z,1.67
2023-01-11T06:29:23.424Z,1.81
2023-01-11T06:44:28.983Z,5.16
2023-01-11T06:59:33.377Z,8.52
2023-01-11T07:14:38.493Z,9.40
2023-01-11T07:29:42.740Z,6.71
2023-01-11T07:44:48.194Z,4.42
2023-01-11T07:59:53.190Z,3.93
2023-01-11T08:14:58.425Z,3.82
2023-01-11T08:30:02.790Z,3.73
2023-01-11T08:45:08.351Z,7.11
2023-01-11T09:00:12.858Z,10.82
2023-01-11T09:15:17.653Z,12.33
2023-01-11T09:30:23.161Z,9.85
2023-01-11T09:45:35.976Z,7.58
2023-01-11T10:00:40.931Z,7.01
2023-01-11T10:18:23.131Z,9.95
2023-01-11T10:31:49.532Z,12.58
2023-01-11T10:46:53.937Z,9.96
2023-01-11T11:02:12.817Z,10.32
2023-01-11T11:17:17.314Z,9.51
2023-01-11T11:32:25.700Z,11.94
2023-01-11T11:47:30.381Z,9.58
2023-01-11T12:02:37.662Z,8.52
2023-01-11T12:17:45.750Z,8.40
2023-01-11T12:32:54.359Z,10.36
2023-01-11T12:48:18.189Z,13.98
2023-01-11T13:03:31.567Z,12.68
2023-01-11T13:18:49.924Z,9.69
2023-01-11T13:33:58.164Z,9.85
2023-01-11T13:49:21.917Z,12.24
2023-01-11T14:04:42.548Z,11.16
2023-01-11T14:19:50.037Z,10.67
2023-01-11T14:35:03.556Z,11.73
2023-01-11T14:50:15.691Z,10.78
2023-01-11T15:05:32.298Z,12.00
2023-01-11T15:20:37.028Z,11.53
2023-01-11T15:35:41.261Z,11.24
2023-01-11T15:51:19.096Z,11.57
2023-01-11T16:06:46.739Z,12.01
2023-01-11T16:21:59.805Z,11.58
2023-01-11T16:37:15.078Z,11.43
2023-01-11T16:52:28.210Z,11.60
2023-01-11T17:07:32.562Z,12.33
2023-01-11T17:22:36.995Z,11.82
2023-01-11T17:37:41.901Z,12.42
2023-01-11T17:52:54.491Z,12.53
2023-01-11T18:07:59.752Z,12.42
2023-01-11T18:23:12.751Z,12.30
2023-01-11T18:38:17.435Z,12.13
2023-01-11T18:53:24.130Z,12.01
2023-01-11T19:08:30.105Z,11.93
2023-01-11T19:23:35.073Z,11.96
2023-01-11T19:38:40.314Z,11.90
2023-01-11T19:53:44.781Z,11.96
2023-01-11T20:08:51.420Z,11.91
2023-01-11T20:23:57.989Z,11.76
2023-01-11T20:39:03.466Z,11.75
2023-01-11T20:54:08.136Z,11.69
2023-01-11T21:09:13.774Z,11.72
2023-01-11T21:24:18.929Z,11.66
2023-01-11T21:39:23.179Z,11.62
2023-01-11T21:54:27.786Z,11.69
2023-01-11T22:09:34.799Z,11.66
2023-01-11T22:24:39.651Z,11.70
2023-01-11T22:39:44.189Z,11.73
2023-01-11T22:54:48.785Z,11.81
2023-01-11T23:09:53.028Z,12.17
2023-01-11T23:24:57.557Z,12.34
2023-01-11T23:40:01.924Z,12.29
2023-01-11T23:55:07.437Z,12.36
